^^
Meteo Knjazevac Station Historical Data
Daily Summary for January 4, 2022 Units:  English    Metric   Both
Daily Weekly Monthly Yearly Custom
  High: Low: Average:
Temperature: 93.6 °F 57.7 °F 78.4 °F
Dew Point: 66.2 °F 55.7 °F 61.1 °F
Humidity: 94% 33.7% 59%
Wind Speed: 12.3mph 0mph 4.4mph
Wind Gust: 16mph - -
Wind- - South
Pressure: 30.10 in 30.00 in -
Precipitation: 0.00 in    
Historical Graphs
 
 
Tabular Data for January 4, 2022
Time Temperature Dew Point Pressure Wind Wind Speed Wind Gust Humidity Rainfall Rate (Hourly) solar Conditions
00:00 66.7 °F 59.7 °F 30.06 in NW 1 mph 2 mph 78% 0.00 in 0 W/m2
00:10 66.4 °F 59.7 °F 30.06 in Calm   2 mph 79% 0.00 in 0 W/m2
00:20 66 °F 59.3 °F 30.06 in Calm   2 mph 79% 0.00 in 0 W/m2
00:30 65.3 °F 59 °F 30.06 in WNW 1 mph 2 mph 80% 0.00 in 0 W/m2
00:40 64.9 °F 59 °F 30.06 in Calm   2 mph 81% 0.00 in 0 W/m2
01:00 64.8 °F 58.8 °F 30.06 in WNW 2 mph 3 mph 81% 0.00 in 0 W/m2
01:10 64.9 °F 58.6 °F 30.06 in NW 1 mph 3 mph 80% 0.00 in 0 W/m2
01:20 65.1 °F 59.1 °F 30.06 in Calm   3 mph 81% 0.00 in 0 W/m2
01:30 64.9 °F 58.9 °F 30.06 in WSW 2 mph 2 mph 81% 0.00 in 0 W/m2
01:40 64.2 °F 58.9 °F 30.06 in Calm   2 mph 83% 0.00 in 0 W/m2
01:50 64 °F 58.7 °F 30.06 in Calm   3 mph 83% 0.00 in 0 W/m2
02:00 63.5 °F 58.6 °F 30.06 in Calm   2 mph 84% 0.00 in 0 W/m2
02:10 63 °F 58 °F 30.06 in West 1 mph 3 mph 84% 0.00 in 0 W/m2
02:20 62.6 °F 58 °F 30.06 in NW 1 mph 2 mph 85% 0.00 in 0 W/m2
02:30 62.2 °F 58 °F 30.06 in Calm   2 mph 86% 0.00 in 0 W/m2
02:40 61.9 °F 57.6 °F 30.06 in WSW 1 mph 2 mph 86% 0.00 in 0 W/m2
02:50 61.5 °F 57.9 °F 30.06 in WNW 1 mph 2 mph 88% 0.00 in 0 W/m2
03:00 61.5 °F 57.9 °F 30.06 in West 1 mph 2 mph 88% 0.00 in 0 W/m2
03:10 61.2 °F 57.6 °F 30.06 in West 1 mph 3 mph 88% 0.00 in 0 W/m2
03:20 61 °F 57.4 °F 30.06 in West 3 mph 5 mph 88% 0.00 in 0 W/m2
03:30 61 °F 57.4 °F 30.06 in WSW 1 mph 4 mph 88% 0.00 in 0 W/m2
03:40 60.8 °F 57.5 °F 30.06 in WNW 2 mph 3 mph 89% 0.00 in 0 W/m2
04:10 60.2 °F 57.3 °F 30.06 in NW 1 mph 2 mph 90% 0.00 in 0 W/m2
04:30 59.4 °F 56.4 °F 30.07 in WSW 2 mph 2 mph 90% 0.00 in 0 W/m2
04:40 59 °F 56.1 °F 30.06 in West 2 mph 4 mph 90% 0.00 in 0 W/m2
04:50 58.8 °F 56.2 °F 30.06 in Calm   5 mph 91% 0.00 in 0 W/m2
05:00 58.8 °F 56.2 °F 30.07 in Calm   2 mph 91% 0.00 in 0 W/m2
05:10 58.6 °F 56 °F 30.07 in Calm   2 mph 91% 0.00 in 0 W/m2
05:20 58.5 °F 55.8 °F 30.07 in WNW 1 mph 2 mph 91% 0.00 in 0 W/m2
05:30 58.1 °F 55.8 °F 30.07 in WSW 1 mph 2 mph 92% 0.00 in 6 W/m2
05:40 57.9 °F 55.9 °F 30.07 in WSW 2 mph 3 mph 93% 0.00 in 13 W/m2
05:50 57.7 °F 55.7 °F 30.07 in WNW 1 mph 4 mph 93% 0.00 in 19 W/m2
06:00 57.7 °F 56 °F 30.08 in WNW 1 mph 2 mph 94% 0.00 in 31 W/m2
06:10 57.9 °F 56.2 °F 30.08 in Calm   2 mph 94% 0.00 in 49 W/m2
06:20 58 °F 56 °F 30.08 in Calm   2 mph 93% 0.00 in 71 W/m2
06:30 57.9 °F 56.2 °F 30.08 in WSW 1 mph 2 mph 94% 0.00 in 89 W/m2
06:40 58.2 °F 56.4 °F 30.08 in WNW 1 mph 2 mph 94% 0.00 in 116 W/m2
07:00 59 °F 57 °F 30.09 in WNW 1 mph 2 mph 93% 0.00 in 175 W/m2
07:10 59.5 °F 56.9 °F 30.09 in Calm   2 mph 91% 0.00 in 202 W/m2
07:20 60.1 °F 57.5 °F 30.09 in Calm   1 mph 91% 0.00 in 231 W/m2
07:30 61.2 °F 58.3 °F 30.09 in Calm   2 mph 90% 0.00 in 263 W/m2
07:40 62.1 °F 58.5 °F 30.10 in Calm   1 mph 88% 0.00 in 298 W/m2
07:54 63.5 °F 59.2 °F 30.10 in West 3.4 mph 2 mph 86.1% 0.00 in 349 W/m2
07:59 63.8 °F 59.3 °F 30.10 in WSW 2.2 mph 1.3 mph 85.3% 0.00 in 371 W/m2
08:04 64.2 °F 59.5 °F 30.10 in West 2.8 mph 2 mph 84.8% 0.00 in 388 W/m2
08:09 64.7 °F 59.7 °F 30.10 in West 2.2 mph 1.1 mph 84% 0.00 in 406 W/m2
08:14 65.3 °F 60.1 °F 30.10 in WSW 2.2 mph 3 mph 83.3% 0.00 in 424 W/m2
08:19 65.7 °F 59.9 °F 30.10 in WSW 2.7 mph 0.9 mph 81.6% 0.00 in 442 W/m2
08:24 66.1 °F 60.1 °F 30.10 in WSW 2.2 mph 3 mph 80.8% 0.00 in 460 W/m2
08:29 67.1 °F 60.8 °F 30.10 in SSW 1.8 mph 1.3 mph 80% 0.00 in 476 W/m2
08:34 68.1 °F 61.3 °F 30.10 in South 2.4 mph 2 mph 78.8% 0.00 in 492 W/m2
08:39 69.4 °F 62 °F 30.10 in South 3.4 mph 1.6 mph 77.2% 0.00 in 510 W/m2
08:44 70.7 °F 61.8 °F 30.10 in South 2.3 mph 3 mph 73.4% 0.00 in 525 W/m2
08:49 71.6 °F 62.7 °F 30.10 in SSW 3 mph 2.2 mph 73.6% 0.00 in 542 W/m2
08:54 72.6 °F 62.7 °F 30.09 in SSW 3.2 mph 3 mph 71.1% 0.00 in 557 W/m2
08:59 73.4 °F 62.7 °F 30.09 in SSW 2.6 mph 2.5 mph 69.1% 0.00 in 577 W/m2
09:04 74 °F 63.2 °F 30.09 in SSW 2.4 mph 4 mph 69% 0.00 in 588 W/m2
09:09 74.8 °F 63.4 °F 30.09 in SW 3.3 mph 2.9 mph 67.7% 0.00 in 603 W/m2
09:14 75.2 °F 63.6 °F 30.09 in South 4.4 mph 4 mph 67.3% 0.00 in 619 W/m2
09:19 75.6 °F 63.3 °F 30.09 in ESE 4.2 mph 2.2 mph 65.8% 0.00 in 634 W/m2
09:24 75.8 °F 63.2 °F 30.09 in NE 6.9 mph 6.3 mph 65% 0.00 in 650 W/m2
09:29 76.4 °F 63.4 °F 30.09 in NE 6.3 mph 4.9 mph 64.3% 0.00 in 665 W/m2
09:34 77 °F 63.9 °F 30.09 in NE 5.9 mph 9 mph 64.1% 0.00 in 678 W/m2
09:39 77.6 °F 64 °F 30.09 in NE 5.3 mph 4.5 mph 63.1% 0.00 in 694 W/m2
09:44 78.4 °F 64.5 °F 30.09 in NNE 6.7 mph 4.2 mph 62.5% 0.00 in 706 W/m2
09:49 79 °F 63.6 °F 30.09 in North 7.3 mph 7.2 mph 59.3% 0.00 in 723 W/m2
09:54 79.5 °F 64.1 °F 30.09 in NNE 5.7 mph 12 mph 59.5% 0.00 in 734 W/m2
09:59 80.1 °F 64.2 °F 30.09 in NNE 7.7 mph 6.3 mph 58.5% 0.00 in 748 W/m2
10:04 80.2 °F 64 °F 30.08 in NE 7.5 mph 9 mph 57.8% 0.00 in 761 W/m2
10:09 80.5 °F 64.3 °F 30.08 in NE 7.3 mph 5.1 mph 57.9% 0.00 in 773 W/m2
10:14 81.1 °F 64.8 °F 30.08 in NNE 8 mph 10 mph 57.8% 0.00 in 788 W/m2
10:19 81.7 °F 65.2 °F 30.08 in NNE 7.3 mph 4.9 mph 57.6% 0.00 in 797 W/m2
10:24 81.9 °F 63.7 °F 30.08 in NNE 9.4 mph 10 mph 54.3% 0.00 in 814 W/m2
10:29 81.9 °F 64.2 °F 30.09 in NE 6.6 mph 5.1 mph 55% 0.00 in 823 W/m2
10:34 82.5 °F 64.5 °F 30.09 in NE 9.3 mph 13 mph 54.8% 0.00 in 830 W/m2
10:39 82.9 °F 64.6 °F 30.08 in North 5.9 mph 4.2 mph 54.2% 0.00 in 843 W/m2
10:44 83.2 °F 64.9 °F 30.08 in North 6.8 mph 11 mph 54% 0.00 in 848 W/m2
10:49 83.4 °F 64.9 °F 30.08 in North 5.8 mph 4 mph 53.9% 0.00 in 759 W/m2
10:54 83.6 °F 65.3 °F 30.08 in NNE 5 mph 8 mph 54.1% 0.00 in 826 W/m2
10:59 83.9 °F 65.2 °F 30.08 in NNE 6.6 mph 4.7 mph 53.4% 0.00 in 880 W/m2
11:04 84.1 °F 65 °F 30.08 in NNE 8.9 mph 9 mph 52.8% 0.00 in 887 W/m2
11:09 84.2 °F 65 °F 30.08 in NNE 8.8 mph 5.6 mph 52.6% 0.00 in 889 W/m2
11:14 84.6 °F 65.7 °F 30.08 in North 6.1 mph 10 mph 53.2% 0.00 in 673 W/m2
11:19 85.1 °F 66 °F 30.08 in North 7.5 mph 5.8 mph 52.9% 0.00 in 777 W/m2
11:24 85.3 °F 65.8 °F 30.08 in North 8 mph 9 mph 52.1% 0.00 in 308 W/m2
11:29 85.5 °F 65.7 °F 30.08 in NNE 6.4 mph 4.7 mph 51.8% 0.00 in 337 W/m2
11:34 85.8 °F 65.6 °F 30.08 in NE 6.9 mph 10 mph 51.1% 0.00 in 592 W/m2
11:39 86.2 °F 65 °F 30.08 in NNE 6.9 mph 4.7 mph 49.3% 0.00 in 839 W/m2
11:44 86.5 °F 65.8 °F 30.08 in North 6.1 mph 10 mph 50.3% 0.00 in 941 W/m2
11:49 86.8 °F 65.1 °F 30.07 in North 6.9 mph 4.9 mph 48.6% 0.00 in 950 W/m2
11:54 86.8 °F 64.8 °F 30.07 in North 5.9 mph 8 mph 48% 0.00 in 955 W/m2
11:59 86.8 °F 65.4 °F 30.07 in NNE 5.4 mph 3.8 mph 49.1% 0.00 in 961 W/m2
12:04 87.2 °F 65.7 °F 30.07 in NE 7.2 mph 8 mph 48.9% 0.00 in 966 W/m2
12:09 87.5 °F 65.5 °F 30.06 in NNE 5.6 mph 4.2 mph 48.1% 0.00 in 967 W/m2
12:14 88 °F 65.8 °F 30.06 in NNE 6.4 mph 8 mph 48% 0.00 in 967 W/m2
12:19 88.2 °F 65.9 °F 30.06 in NNE 7.6 mph 5.6 mph 47.7% 0.00 in 970 W/m2
12:24 88.4 °F 65.7 °F 30.06 in NNE 10.2 mph 10 mph 47.1% 0.00 in 973 W/m2
12:29 88.5 °F 66.1 °F 30.06 in NNE 9.1 mph 4 mph 47.7% 0.00 in 973 W/m2
12:34 88.8 °F 65.3 °F 30.06 in NNE 12.3 mph 15 mph 46% 0.00 in 977 W/m2
12:39 88.9 °F 65.9 °F 30.06 in NNE 8 mph 5.6 mph 46.9% 0.00 in 979 W/m2
12:44 89.2 °F 65.3 °F 30.06 in NNE 9.3 mph 15 mph 45.4% 0.00 in 980 W/m2
12:49 89.6 °F 66.2 °F 30.06 in NNE 9.5 mph 6.9 mph 46.3% 0.00 in 981 W/m2
12:54 89.8 °F 65.6 °F 30.06 in NNE 8.8 mph 7.2 mph 45% 0.00 in 985 W/m2
12:59 89.9 °F 65.2 °F 30.06 in NNE 10.3 mph 6.9 mph 44.3% 0.00 in 986 W/m2
13:04 89.9 °F 65.6 °F 30.05 in NNE 9 mph 12 mph 44.7% 0.00 in 989 W/m2
13:09 90.4 °F 65.7 °F 30.05 in NNE 7 mph 4.7 mph 44.3% 0.00 in 1000 W/m2
13:14 90.8 °F 65.6 °F 30.05 in NNE 10.2 mph 13 mph 43.6% 0.00 in 998 W/m2
13:19 91 °F 66 °F 30.05 in North 8.4 mph 7.2 mph 43.9% 0.00 in 1006 W/m2
13:24 91.3 °F 65.1 °F 30.05 in North 8.8 mph 13 mph 42.1% 0.00 in 1015 W/m2
13:29 91.4 °F 63 °F 30.05 in North 8.1 mph 5.6 mph 39% 0.00 in 1016 W/m2
13:34 91.7 °F 63 °F 30.04 in North 9.8 mph 10 mph 38.7% 0.00 in 1004 W/m2
13:39 92 °F 61.2 °F 30.04 in NNE 11.6 mph 8.3 mph 36% 0.00 in 966 W/m2
13:44 92 °F 59.4 °F 30.04 in NNE 12 mph 13 mph 33.7% 0.00 in 966 W/m2
13:49 92 °F 61.3 °F 30.04 in NNE 9.7 mph 6.9 mph 36.1% 0.00 in 957 W/m2
13:54 91.8 °F 62 °F 30.04 in NNE 8 mph 13 mph 37.2% 0.00 in 937 W/m2
13:59 91.9 °F 61.5 °F 30.04 in NNE 6.8 mph 4.5 mph 36.4% 0.00 in 925 W/m2
14:04 92.3 °F 61.7 °F 30.04 in NNE 6.7 mph 12 mph 36.2% 0.00 in 915 W/m2
14:09 92.5 °F 61.2 °F 30.04 in NNE 10.2 mph 10.7 mph 35.4% 0.00 in 905 W/m2
14:14 92.5 °F 60.4 °F 30.03 in NNE 9.6 mph 16 mph 34.5% 0.00 in 905 W/m2
14:19 92.6 °F 61.9 °F 30.03 in NE 6.5 mph 3.6 mph 36.2% 0.00 in 896 W/m2
14:24 92.8 °F 60.9 °F 30.03 in NE 8.5 mph 6 mph 34.7% 0.00 in 879 W/m2
14:29 93 °F 61 °F 30.03 in NNE 7.4 mph 4.7 mph 34.6% 0.00 in 874 W/m2
14:34 92.7 °F 60.5 °F 30.03 in NNE 10.5 mph 9 mph 34.3% 0.00 in 864 W/m2
14:39 92.7 °F 60.6 °F 30.03 in North 5.5 mph 5.4 mph 34.5% 0.00 in 858 W/m2
14:44 92.7 °F 60.4 °F 30.03 in NNE 7.1 mph 4.9 mph 34.2% 0.00 in 845 W/m2
14:49 92.6 °F 62 °F 30.03 in NNE 7.9 mph 3.1 mph 36.3% 0.00 in 824 W/m2
14:54 92.9 °F 61.3 °F 30.02 in NNE 8.8 mph 10 mph 35.1% 0.00 in 819 W/m2
14:59 93.3 °F 61.8 °F 30.02 in North 10.2 mph 5.6 mph 35.3% 0.00 in 804 W/m2
15:04 93.5 °F 61.1 °F 30.02 in NNE 9 mph 13 mph 34.3% 0.00 in 794 W/m2
15:09 93.4 °F 61.1 °F 30.02 in NNE 8 mph 5.8 mph 34.3% 0.00 in 791 W/m2
15:14 93.5 °F 61.3 °F 30.02 in NNE 7 mph 14 mph 34.5% 0.00 in 778 W/m2
15:19 93.6 °F 61.1 °F 30.02 in NNE 8.3 mph 6 mph 34.1% 0.00 in 758 W/m2
15:24 93.6 °F 61 °F 30.02 in NNE 8.7 mph 12 mph 34% 0.00 in 738 W/m2
15:29 93.6 °F 61.1 °F 30.02 in North 7.8 mph 6.7 mph 34% 0.00 in 738 W/m2
15:34 93.3 °F 60.5 °F 30.02 in NNE 9 mph 5.6 mph 33.7% 0.00 in 715 W/m2
15:39 93 °F 60.7 °F 30.02 in NNE 11.8 mph 7.8 mph 34.3% 0.00 in 671 W/m2
15:44 92.7 °F 60.7 °F 30.02 in North 9.1 mph 13 mph 34.6% 0.00 in 405 W/m2
15:49 92.1 °F 60.5 °F 30.01 in North 5.4 mph 2.9 mph 35% 0.00 in 681 W/m2
15:54 92 °F 61.6 °F 30.01 in North 6.6 mph 10 mph 36.5% 0.00 in 667 W/m2
15:59 92.4 °F 61.7 °F 30.01 in North 5 mph 2.9 mph 36.3% 0.00 in 662 W/m2
16:04 92.4 °F 61.7 °F 30.01 in NNW 6.2 mph 10 mph 36.1% 0.00 in 647 W/m2
16:09 92.2 °F 62.1 °F 30.01 in NNW 3.9 mph 2.5 mph 36.8% 0.00 in 629 W/m2
16:14 92.3 °F 62.4 °F 30.01 in NNW 4.8 mph 7 mph 37.2% 0.00 in 628 W/m2
16:19 92.7 °F 62.6 °F 30.01 in North 7 mph 4.2 mph 37% 0.00 in 621 W/m2
16:24 92.8 °F 62.5 °F 30.01 in NNE 8.4 mph 7 mph 36.7% 0.00 in 590 W/m2
16:29 92.5 °F 61.6 °F 30.01 in NNE 8.2 mph 5.6 mph 36% 0.00 in 569 W/m2
16:34 92.4 °F 62.5 °F 30.01 in NE 10.2 mph 11 mph 37.2% 0.00 in 564 W/m2
16:39 91.9 °F 62.1 °F 30.01 in NNE 8.7 mph 5.6 mph 37.3% 0.00 in 353 W/m2
16:44 91.4 °F 62.2 °F 30.01 in NNE 7.3 mph 12 mph 38% 0.00 in 165 W/m2
16:49 90.7 °F 61.6 °F 30.01 in North 6.1 mph 3.6 mph 38% 0.00 in 469 W/m2
16:54 90.7 °F 61.9 °F 30.01 in North 8 mph 8 mph 38.5% 0.00 in 443 W/m2
16:59 90.3 °F 61.5 °F 30.01 in North 9.6 mph 5.6 mph 38.3% 0.00 in 410 W/m2
17:04 90.1 °F 62 °F 30.01 in North 6.1 mph 12 mph 39.2% 0.00 in 410 W/m2
17:09 90.4 °F 62 °F 30.01 in North 6.3 mph 4.5 mph 38.9% 0.00 in 399 W/m2
17:14 90.5 °F 62 °F 30.01 in North 5 mph 9 mph 38.8% 0.00 in 270 W/m2
17:19 90.2 °F 61.9 °F 30.01 in North 4.1 mph 2.2 mph 39% 0.00 in 142 W/m2
17:23 89.9 °F 61.6 °F 30.01 in North 3.7 mph 5 mph 39% 0.00 in 114 W/m2
17:29 89.2 °F 61 °F 30.01 in North 6.5 mph 4.5 mph 39% 0.00 in 101 W/m2
17:34 88.8 °F 60.7 °F 30.00 in North 4.2 mph 3.8 mph 39% 0.00 in 90 W/m2
17:39 88.4 °F 61 °F 30.00 in North 4.8 mph 3.8 mph 40% 0.00 in 95 W/m2
17:44 88.1 °F 60.7 °F 30.00 in North 5 mph 7 mph 40% 0.00 in 132 W/m2
17:49 87.8 °F 60.5 °F 30.00 in NNW 4.4 mph 3.1 mph 40% 0.00 in 166 W/m2
17:54 87.6 °F 60.3 °F 30.00 in NNW 5.5 mph 5 mph 40% 0.00 in 95 W/m2
17:59 87.3 °F 60.1 °F 30.01 in NNW 4.7 mph 4.5 mph 40% 0.00 in 106 W/m2
18:04 87.1 °F 60.5 °F 30.01 in NNW 5.4 mph 7 mph 41% 0.00 in 153 W/m2
18:09 87.1 °F 60.6 °F 30.01 in NNW 5.6 mph 4.2 mph 41.1% 0.00 in 121 W/m2
18:14 87.1 °F 59.8 °F 30.01 in NNW 4.4 mph 6 mph 40% 0.00 in 169 W/m2
18:19 87.3 °F 60.1 °F 30.01 in NNW 4.1 mph 2.7 mph 40% 0.00 in 168 W/m2
18:24 87.4 °F 60.2 °F 30.01 in NNW 4.1 mph 5 mph 40% 0.00 in 133 W/m2
18:29 87.4 °F 60.5 °F 30.01 in NNW 4.4 mph 4 mph 40.5% 0.00 in 134 W/m2
18:34 87.5 °F 60.3 °F 30.01 in NNW 3.6 mph 6 mph 40.1% 0.00 in 132 W/m2
18:39 87.6 °F 61.7 °F 30.01 in NNW 3.6 mph 2 mph 42% 0.00 in 122 W/m2
18:44 87.6 °F 61.3 °F 30.01 in NNW 5 mph 4 mph 41.5% 0.00 in 108 W/m2
18:49 87.5 °F 61.4 °F 30.01 in North 3.9 mph 2.9 mph 41.7% 0.00 in 102 W/m2
18:54 87.4 °F 61.5 °F 30.01 in North 3.4 mph 6 mph 42% 0.00 in 87 W/m2
18:59 87.2 °F 61.5 °F 30.01 in NNW 3.1 mph 2.2 mph 42.2% 0.00 in 75 W/m2
19:04 87 °F 61.6 °F 30.01 in NNW 3.1 mph 4 mph 42.7% 0.00 in 66 W/m2
19:09 86.9 °F 61.7 °F 30.01 in NNW 2.8 mph 1.8 mph 43% 0.00 in 59 W/m2
19:14 86.5 °F 61.2 °F 30.01 in NNW 3.6 mph 2.2 mph 42.7% 0.00 in 41 W/m2
19:19 86.3 °F 61.8 °F 30.01 in NW 2.8 mph 1.8 mph 44% 0.00 in 38 W/m2
19:24 85.6 °F 61.4 °F 30.01 in NW 3.7 mph 5 mph 44.3% 0.00 in 34 W/m2
19:29 85.2 °F 62.1 °F 30.01 in NW 2.7 mph 1.6 mph 46.1% 0.00 in 27 W/m2
19:34 84.5 °F 62.5 °F 30.01 in NW 2.3 mph 5 mph 47.8% 0.00 in 21 W/m2
19:39 83.3 °F 62.4 °F 30.01 in SSW 2.6 mph 2.5 mph 49.5% 0.00 in 16 W/m2
19:44 82.5 °F 62.6 °F 30.01 in South 2.1 mph 3 mph 51% 0.00 in 11 W/m2
19:49 82 °F 62.6 °F 30.01 in South 3.2 mph 2.2 mph 52% 0.00 in 8 W/m2
19:54 81.3 °F 62.4 °F 30.01 in SSW 3 mph 3 mph 52.8% 0.00 in 5 W/m2
19:59 80.7 °F 62 °F 30.01 in SSW 3.3 mph 2.9 mph 53% 0.00 in 3 W/m2
20:04 79.7 °F 61.5 °F 30.02 in SSW 2.9 mph 4 mph 54% 0.00 in 1 W/m2
20:09 79.3 °F 61.2 °F 30.02 in SSW 1.7 mph 1.1 mph 54% 0.00 in 0 W/m2
20:14 79.2 °F 61.5 °F 30.02 in SW 1.3 mph 3 mph 54.9% 0.00 in 0 W/m2
20:19 78.9 °F 61.6 °F 30.02 in WSW 2.2 mph 1.3 mph 55.4% 0.00 in 0 W/m2
20:24 78.4 °F 62 °F 30.02 in WSW 2.3 mph 2 mph 57.2% 0.00 in 0 W/m2
20:29 77.9 °F 62.1 °F 30.03 in WSW 2.3 mph 1.6 mph 58.4% 0.00 in 0 W/m2
20:34 77.5 °F 62 °F 30.03 in SW 2.3 mph 2 mph 59% 0.00 in 0 W/m2
20:39 77.1 °F 61.5 °F 30.03 in SSW 2.3 mph 1.6 mph 58.7% 0.00 in 0 W/m2
20:44 76.7 °F 61 °F 30.03 in SW 2.3 mph 2 mph 58.4% 0.00 in 0 W/m2
20:49 76.3 °F 60.7 °F 30.03 in SSW 2.4 mph 1.8 mph 58.7% 0.00 in 0 W/m2
20:54 75.8 °F 60 °F 30.03 in SSW 2.8 mph 3 mph 58% 0.00 in 0 W/m2
20:59 75.5 °F 59.9 °F 30.04 in SW 2.4 mph 2 mph 58.6% 0.00 in 0 W/m2
21:04 75.1 °F 59.8 °F 30.04 in SSW 2.4 mph 3 mph 59% 0.00 in 0 W/m2
21:09 74.8 °F 60.2 °F 30.04 in SSW 2.1 mph 1.3 mph 60.4% 0.00 in 0 W/m2
21:14 74.5 °F 60.7 °F 30.04 in SW 1.5 mph 3 mph 62.3% 0.00 in 0 W/m2
21:19 74 °F 60.6 °F 30.04 in SW 2.3 mph 2 mph 63% 0.00 in 0 W/m2
21:24 73.5 °F 60.2 °F 30.04 in SW 2 mph 2 mph 63.2% 0.00 in 0 W/m2
21:29 73 °F 60.1 °F 30.04 in WSW 1.9 mph 1.8 mph 64% 0.00 in 0 W/m2
21:34 72.6 °F 60.1 °F 30.04 in WSW 2.4 mph 2.2 mph 64.9% 0.00 in 0 W/m2
21:39 72 °F 59.8 °F 30.04 in WSW 2.6 mph 2.2 mph 65.5% 0.00 in 0 W/m2
21:44 71.7 °F 59.9 °F 30.04 in WSW 4 mph 4 mph 66.4% 0.00 in 0 W/m2
21:49 71.4 °F 59 °F 30.04 in West 4.9 mph 3.6 mph 65% 0.00 in 0 W/m2
21:54 71.2 °F 59.1 °F 30.04 in West 3.1 mph 6 mph 65.6% 0.00 in 0 W/m2
21:59 71 °F 59.4 °F 30.04 in West 3.6 mph 2.7 mph 67% 0.00 in 0 W/m2
22:04 70.6 °F 59.1 °F 30.04 in West 3.4 mph 2.9 mph 67% 0.00 in 0 W/m2
22:09 70.3 °F 59.1 °F 30.05 in WNW 1 mph 0.4 mph 67.7% 0.00 in 0 W/m2
22:14 70.1 °F 59 °F 30.05 in NW 1.3 mph 1.1 mph 68% 0.00 in 0 W/m2
22:19 69.8 °F 58.9 °F 30.04 in WNW 1.4 mph 1.3 mph 68.3% 0.00 in 0 W/m2
22:24 69.4 °F 58.7 °F 30.05 in NW 0.3 mph 2 mph 68.8% 0.00 in 0 W/m2
22:29 69 °F 58.6 °F 30.05 in NW 2.2 mph 2 mph 69.5% 0.00 in 0 W/m2
22:34 68.7 °F 58.5 °F 30.05 in WSW 1.5 mph 1.6 mph 69.9% 0.00 in 0 W/m2
22:39 68.5 °F 58.4 °F 30.05 in SW 0.8 mph 0.9 mph 70% 0.00 in 0 W/m2
22:44 68.4 °F 58 °F 30.05 in WNW 1.7 mph 2 mph 69.6% 0.00 in 0 W/m2
22:49 68.3 °F 58 °F 30.05 in WNW 2.4 mph 2 mph 69.8% 0.00 in 0 W/m2
22:54 68.1 °F 58.2 °F 30.05 in SW 2.3 mph 3 mph 70.5% 0.00 in 0 W/m2
22:59 67.8 °F 58.5 °F 30.05 in SW 1.3 mph 3 mph 72% 0.00 in 0 W/m2
23:04 67.6 °F 58.5 °F 30.05 in WSW 2 mph 2 mph 72.6% 0.00 in 0 W/m2
23:09 67.3 °F 58.4 °F 30.05 in West 2.3 mph 2 mph 73% 0.00 in 0 W/m2
23:14 66.9 °F 58 °F 30.05 in West 1.9 mph 2 mph 73% 0.00 in 0 W/m2
23:19 66.5 °F 57.9 °F 30.06 in WNW 1.5 mph 2 mph 73.9% 0.00 in 0 W/m2
23:24 66.1 °F 57.6 °F 30.06 in West 1.3 mph 2 mph 74.2% 0.00 in 0 W/m2
23:29 65.8 °F 57.7 °F 30.06 in WSW 0.7 mph 1 mph 75% 0.00 in 0 W/m2
23:34 65.6 °F 57.4 °F 30.06 in West 1.7 mph 1.1 mph 75% 0.00 in 0 W/m2
23:39 65.2 °F 57.8 °F 30.06 in NW 2.3 mph 1.8 mph 77% 0.00 in 0 W/m2
23:44 64.9 °F 57.6 °F 30.06 in NW 1.8 mph 2 mph 77% 0.00 in 0 W/m2
23:49 64.8 °F 57.4 °F 30.06 in NW 1 mph 2 mph 77% 0.00 in 0 W/m2
23:54 64.6 °F 57.2 °F 30.06 in NNW 1.6 mph 2 mph 77.1% 0.00 in 0 W/m2
23:59 64.2 °F 56.9 °F 30.06 in NW 1.7 mph 2 mph 77% 0.00 in 0 W/m2
Knjazevac, Serbia
Compliments of Weather Underground - 2 mb